sensor_id;sensor_type;location;lat;lon;timestamp;temperature;humidity
792;DHT22;379;49.022;12.148;2022-11-15T00:00:47;2.10;99.90
792;DHT22;379;49.022;12.148;2022-11-15T00:03:14;2.10;99.90
792;DHT22;379;49.022;12.148;2022-11-15T00:05:41;2.00;99.90
792;DHT22;379;49.022;12.148;2022-11-15T00:08:08;2.00;99.90
792;DHT22;379;49.022;12.148;2022-11-15T00:10:35;2.00;99.90
792;DHT22;379;49.022;12.148;2022-11-15T00:13:04;2.00;99.90
792;DHT22;379;49.022;12.148;2022-11-15T00:15:31;1.90;99.90
792;DHT22;379;49.022;12.148;2022-11-15T00:17:59;1.90;99.90
792;DHT22;379;49.022;12.148;2022-11-15T00:20:26;1.90;99.90
792;DHT22;379;49.022;12.148;2022-11-15T00:22:52;1.90;99.90
792;DHT22;379;49.022;12.148;2022-11-15T00:25:19;1.90;99.90
792;DHT22;379;49.022;12.148;2022-11-15T00:27:46;1.90;99.90
792;DHT22;379;49.022;12.148;2022-11-15T00:30:13;1.90;99.90
792;DHT22;379;49.022;12.148;2022-11-15T00:32:39;2.00;99.90
792;DHT22;379;49.022;12.148;2022-11-15T00:35:08;1.90;99.90
792;DHT22;379;49.022;12.148;2022-11-15T00:37:35;1.90;99.90
792;DHT22;379;49.022;12.148;2022-11-15T00:40:02;1.90;99.90
792;DHT22;379;49.022;12.148;2022-11-15T00:42:28;1.80;99.90
792;DHT22;379;49.022;12.148;2022-11-15T00:44:55;1.70;99.90
792;DHT22;379;49.022;12.148;2022-11-15T00:47:22;1.60;99.90
792;DHT22;379;49.022;12.148;2022-11-15T00:49:49;1.60;99.90
792;DHT22;379;49.022;12.148;2022-11-15T00:52:17;1.60;99.90
792;DHT22;379;49.022;12.148;2022-11-15T00:54:44;1.50;99.90
792;DHT22;379;49.022;12.148;2022-11-15T00:57:11;1.50;99.90
792;DHT22;379;49.022;12.148;2022-11-15T00:59:37;1.50;99.90
792;DHT22;379;49.022;12.148;2022-11-15T01:02:04;1.40;99.90
792;DHT22;379;49.022;12.148;2022-11-15T01:04:31;1.40;99.90
792;DHT22;379;49.022;12.148;2022-11-15T01:06:57;1.50;99.90
792;DHT22;379;49.022;12.148;2022-11-15T01:09:25;1.50;99.90
792;DHT22;379;49.022;12.148;2022-11-15T01:11:52;1.40;99.90
792;DHT22;379;49.022;12.148;2022-11-15T01:14:19;1.50;99.90
792;DHT22;379;49.022;12.148;2022-11-15T01:16:46;1.40;99.90
792;DHT22;379;49.022;12.148;2022-11-15T01:19:12;1.40;99.90
792;DHT22;379;49.022;12.148;2022-11-15T01:21:39;1.30;99.90
792;DHT22;379;49.022;12.148;2022-11-15T01:24:07;1.20;99.90
792;DHT22;379;49.022;12.148;2022-11-15T01:26:35;1.20;99.90
792;DHT22;379;49.022;12.148;2022-11-15T01:29:02;1.30;99.90
792;DHT22;379;49.022;12.148;2022-11-15T01:31:29;1.30;99.90
792;DHT22;379;49.022;12.148;2022-11-15T01:33:55;1.40;99.90
792;DHT22;379;49.022;12.148;2022-11-15T01:36:23;1.40;99.90
792;DHT22;379;49.022;12.148;2022-11-15T01:38:53;1.50;99.90
792;DHT22;379;49.022;12.148;2022-11-15T01:41:22;1.40;99.90
792;DHT22;379;49.022;12.148;2022-11-15T01:43:52;1.20;99.90
792;DHT22;379;49.022;12.148;2022-11-15T01:46:25;1.10;99.90
792;DHT22;379;49.022;12.148;2022-11-15T01:48:54;1.00;99.90
792;DHT22;379;49.022;12.148;2022-11-15T01:51:25;0.90;99.90
792;DHT22;379;49.022;12.148;2022-11-15T01:53:55;1.00;99.90
792;DHT22;379;49.022;12.148;2022-11-15T01:56:24;1.00;99.90
792;DHT22;379;49.022;12.148;2022-11-15T01:58:55;1.00;99.90
792;DHT22;379;49.022;12.148;2022-11-15T02:01:24;1.00;99.90
792;DHT22;379;49.022;12.148;2022-11-15T02:03:56;1.00;99.90
792;DHT22;379;49.022;12.148;2022-11-15T02:06:24;1.10;99.90
792;DHT22;379;49.022;12.148;2022-11-15T02:08:51;1.20;99.90
792;DHT22;379;49.022;12.148;2022-11-15T02:11:18;1.20;99.90
792;DHT22;379;49.022;12.148;2022-11-15T02:13:45;1.10;99.90
792;DHT22;379;49.022;12.148;2022-11-15T02:16:24;1.10;99.90
792;DHT22;379;49.022;12.148;2022-11-15T02:18:59;1.00;99.90
792;DHT22;379;49.022;12.148;2022-11-15T02:21:31;1.10;99.90
792;DHT22;379;49.022;12.148;2022-11-15T02:24:25;1.00;99.90
792;DHT22;379;49.022;12.148;2022-11-15T02:27:24;0.80;99.90
792;DHT22;379;49.022;12.148;2022-11-15T02:30:04;0.70;99.90
792;DHT22;379;49.022;12.148;2022-11-15T02:32:38;0.70;99.90
792;DHT22;379;49.022;12.148;2022-11-15T02:35:15;0.70;99.90
792;DHT22;379;49.022;12.148;2022-11-15T02:37:45;0.60;99.90
792;DHT22;379;49.022;12.148;2022-11-15T02:40:18;0.70;99.90
792;DHT22;379;49.022;12.148;2022-11-15T02:42:51;0.70;99.90
792;DHT22;379;49.022;12.148;2022-11-15T02:45:40;0.70;99.90
792;DHT22;379;49.022;12.148;2022-11-15T02:48:12;0.50;99.90
792;DHT22;379;49.022;12.148;2022-11-15T02:50:40;0.40;99.90
792;DHT22;379;49.022;12.148;2022-11-15T02:53:08;0.30;99.90
792;DHT22;379;49.022;12.148;2022-11-15T02:55:36;0.40;99.90
792;DHT22;379;49.022;12.148;2022-11-15T02:58:27;0.30;99.90
792;DHT22;379;49.022;12.148;2022-11-15T03:01:00;0.30;99.90
792;DHT22;379;49.022;12.148;2022-11-15T03:03:49;0.30;99.90
792;DHT22;379;49.022;12.148;2022-11-15T03:06:25;0.30;99.90
792;DHT22;379;49.022;12.148;2022-11-15T03:09:02;0.20;99.90
792;DHT22;379;49.022;12.148;2022-11-15T03:11:34;0.10;99.90
792;DHT22;379;49.022;12.148;2022-11-15T03:14:07;0.10;99.90
792;DHT22;379;49.022;12.148;2022-11-15T03:16:38;0.20;99.90
792;DHT22;379;49.022;12.148;2022-11-15T03:19:13;0.20;99.90
792;DHT22;379;49.022;12.148;2022-11-15T03:21:40;0.20;99.90
792;DHT22;379;49.022;12.148;2022-11-15T03:24:08;0.20;99.90
792;DHT22;379;49.022;12.148;2022-11-15T03:26:36;0.20;99.90
792;DHT22;379;49.022;12.148;2022-11-15T03:29:07;0.10;99.90
792;DHT22;379;49.022;12.148;2022-11-15T03:31:36;0.10;99.90
792;DHT22;379;49.022;12.148;2022-11-15T03:34:24;0.20;99.90
792;DHT22;379;49.022;12.148;2022-11-15T03:36:52;0.20;99.90
792;DHT22;379;49.022;12.148;2022-11-15T03:39:20;0.10;99.90
792;DHT22;379;49.022;12.148;2022-11-15T03:41:49;0.00;99.90
792;DHT22;379;49.022;12.148;2022-11-15T03:44:27;-0.10;99.90
792;DHT22;379;49.022;12.148;2022-11-15T03:46:58;-0.10;99.90
792;DHT22;379;49.022;12.148;2022-11-15T03:49:32;0.00;99.90
792;DHT22;379;49.022;12.148;2022-11-15T03:52:00;-0.10;99.90
792;DHT22;379;49.022;12.148;2022-11-15T03:54:28;-0.20;99.90
792;DHT22;379;49.022;12.148;2022-11-15T03:56:55;-0.20;99.90
792;DHT22;379;49.022;12.148;2022-11-15T03:59:21;-0.10;99.90
792;DHT22;379;49.022;12.148;2022-11-15T04:01:48;0.00;99.90
792;DHT22;379;49.022;12.148;2022-11-15T04:04:15;0.10;99.90
792;DHT22;379;49.022;12.148;2022-11-15T04:06:43;0.10;99.90
792;DHT22;379;49.022;12.148;2022-11-15T04:09:10;0.00;99.90
792;DHT22;379;49.022;12.148;2022-11-15T04:11:36;-0.10;99.90
792;DHT22;379;49.022;12.148;2022-11-15T04:14:03;-0.30;99.90
792;DHT22;379;49.022;12.148;2022-11-15T04:16:30;-0.30;99.90
792;DHT22;379;49.022;12.148;2022-11-15T04:18:57;-0.30;99.90
792;DHT22;379;49.022;12.148;2022-11-15T04:21:42;-0.40;99.90
792;DHT22;379;49.022;12.148;2022-11-15T04:24:26;-0.40;99.90
792;DHT22;379;49.022;12.148;2022-11-15T04:26:53;-0.40;99.90
792;DHT22;379;49.022;12.148;2022-11-15T04:29:20;-0.40;99.90
792;DHT22;379;49.022;12.148;2022-11-15T04:32:01;-0.50;99.90
792;DHT22;379;49.022;12.148;2022-11-15T04:34:28;-0.40;99.90
792;DHT22;379;49.022;12.148;2022-11-15T04:36:56;-0.30;99.90
792;DHT22;379;49.022;12.148;2022-11-15T04:39:38;-0.20;99.90
792;DHT22;379;49.022;12.148;2022-11-15T04:42:05;-0.20;99.90
792;DHT22;379;49.022;12.148;2022-11-15T04:44:31;-0.10;99.90
792;DHT22;379;49.022;12.148;2022-11-15T04:46:58;-0.10;99.90
792;DHT22;379;49.022;12.148;2022-11-15T04:49:25;0.00;99.90
792;DHT22;379;49.022;12.148;2022-11-15T04:51:52;0.00;99.90
792;DHT22;379;49.022;12.148;2022-11-15T04:54:20;0.10;99.90
792;DHT22;379;49.022;12.148;2022-11-15T04:56:47;0.20;99.90
792;DHT22;379;49.022;12.148;2022-11-15T04:59:13;0.30;99.90
792;DHT22;379;49.022;12.148;2022-11-15T05:01:40;0.40;99.90
792;DHT22;379;49.022;12.148;2022-11-15T05:04:07;0.40;99.90
792;DHT22;379;49.022;12.148;2022-11-15T05:06:46;0.40;99.90
792;DHT22;379;49.022;12.148;2022-11-15T05:09:13;0.30;99.90
792;DHT22;379;49.022;12.148;2022-11-15T05:11:41;0.30;99.90
792;DHT22;379;49.022;12.148;2022-11-15T05:14:08;0.20;99.90
792;DHT22;379;49.022;12.148;2022-11-15T05:16:35;0.20;99.90
792;DHT22;379;49.022;12.148;2022-11-15T05:19:02;0.10;99.90
792;DHT22;379;49.022;12.148;2022-11-15T05:21:29;0.10;99.90
792;DHT22;379;49.022;12.148;2022-11-15T05:23:55;0.00;99.90
792;DHT22;379;49.022;12.148;2022-11-15T05:26:22;-0.10;99.90
792;DHT22;379;49.022;12.148;2022-11-15T05:28:53;-0.10;99.90
792;DHT22;379;49.022;12.148;2022-11-15T05:31:20;-0.20;99.90
792;DHT22;379;49.022;12.148;2022-11-15T05:33:49;-0.20;99.90
792;DHT22;379;49.022;12.148;2022-11-15T05:36:20;-0.30;99.90
792;DHT22;379;49.022;12.148;2022-11-15T05:38:48;-0.30;99.90
792;DHT22;379;49.022;12.148;2022-11-15T05:41:16;-0.40;99.90
792;DHT22;379;49.022;12.148;2022-11-15T05:43:44;-0.40;99.90
792;DHT22;379;49.022;12.148;2022-11-15T05:46:13;-0.40;99.90
792;DHT22;379;49.022;12.148;2022-11-15T05:48:41;-0.50;99.90
792;DHT22;379;49.022;12.148;2022-11-15T05:51:09;-0.50;99.90
792;DHT22;379;49.022;12.148;2022-11-15T05:53:39;-0.50;99.90
792;DHT22;379;49.022;12.148;2022-11-15T05:56:06;-0.50;99.90
792;DHT22;379;49.022;12.148;2022-11-15T05:58:33;-0.60;99.90
792;DHT22;379;49.022;12.148;2022-11-15T06:01:00;-0.50;99.90
792;DHT22;379;49.022;12.148;2022-11-15T06:03:28;-0.50;99.90
792;DHT22;379;49.022;12.148;2022-11-15T06:05:56;-0.30;99.90
792;DHT22;379;49.022;12.148;2022-11-15T06:08:23;-0.20;99.90
792;DHT22;379;49.022;12.148;2022-11-15T06:10:50;-0.10;99.90
792;DHT22;379;49.022;12.148;2022-11-15T06:13:16;-0.10;99.90
792;DHT22;379;49.022;12.148;2022-11-15T06:15:43;0.00;99.90
792;DHT22;379;49.022;12.148;2022-11-15T06:18:10;0.00;99.90
792;DHT22;379;49.022;12.148;2022-11-15T06:20:38;0.00;99.90
792;DHT22;379;49.022;12.148;2022-11-15T06:23:05;-0.10;99.90
792;DHT22;379;49.022;12.148;2022-11-15T06:25:32;-0.10;99.90
792;DHT22;379;49.022;12.148;2022-11-15T06:27:59;0.00;99.90
792;DHT22;379;49.022;12.148;2022-11-15T06:30:26;0.00;99.90
792;DHT22;379;49.022;12.148;2022-11-15T06:32:59;-0.10;99.90
792;DHT22;379;49.022;12.148;2022-11-15T06:35:27;-0.10;99.90
792;DHT22;379;49.022;12.148;2022-11-15T06:37:55;-0.10;99.90
792;DHT22;379;49.022;12.148;2022-11-15T06:40:22;-0.20;99.90
792;DHT22;379;49.022;12.148;2022-11-15T06:42:48;-0.20;99.90
792;DHT22;379;49.022;12.148;2022-11-15T06:45:15;-0.30;99.90
792;DHT22;379;49.022;12.148;2022-11-15T06:47:45;-0.30;99.90
792;DHT22;379;49.022;12.148;2022-11-15T06:50:13;-0.30;99.90
792;DHT22;379;49.022;12.148;2022-11-15T06:52:39;-0.30;99.90
792;DHT22;379;49.022;12.148;2022-11-15T06:55:08;-0.20;99.90
792;DHT22;379;49.022;12.148;2022-11-15T06:57:36;-0.10;99.90
792;DHT22;379;49.022;12.148;2022-11-15T07:00:03;0.00;99.90
792;DHT22;379;49.022;12.148;2022-11-15T07:02:30;0.10;99.90
792;DHT22;379;49.022;12.148;2022-11-15T07:04:57;0.10;99.90
792;DHT22;379;49.022;12.148;2022-11-15T07:07:24;0.20;99.90
792;DHT22;379;49.022;12.148;2022-11-15T07:09:50;0.30;99.90
792;DHT22;379;49.022;12.148;2022-11-15T07:12:18;0.30;99.90
792;DHT22;379;49.022;12.148;2022-11-15T07:14:45;0.30;99.90
792;DHT22;379;49.022;12.148;2022-11-15T07:17:12;0.30;99.90
792;DHT22;379;49.022;12.148;2022-11-15T07:19:38;0.40;99.90
792;DHT22;379;49.022;12.148;2022-11-15T07:22:05;0.50;99.90
792;DHT22;379;49.022;12.148;2022-11-15T07:24:32;0.50;99.90
792;DHT22;379;49.022;12.148;2022-11-15T07:26:58;0.60;99.90
792;DHT22;379;49.022;12.148;2022-11-15T07:29:26;0.70;99.90
792;DHT22;379;49.022;12.148;2022-11-15T07:31:53;0.70;99.90
792;DHT22;379;49.022;12.148;2022-11-15T07:34:20;0.80;99.90
792;DHT22;379;49.022;12.148;2022-11-15T07:36:47;0.80;99.90
792;DHT22;379;49.022;12.148;2022-11-15T07:39:14;0.80;99.90
792;DHT22;379;49.022;12.148;2022-11-15T07:41:40;0.80;99.90
792;DHT22;379;49.022;12.148;2022-11-15T07:44:08;0.80;99.90
792;DHT22;379;49.022;12.148;2022-11-15T07:46:36;0.90;99.90
792;DHT22;379;49.022;12.148;2022-11-15T07:49:03;0.90;99.90
792;DHT22;379;49.022;12.148;2022-11-15T07:51:30;1.00;99.90
792;DHT22;379;49.022;12.148;2022-11-15T07:53:57;1.10;99.90
792;DHT22;379;49.022;12.148;2022-11-15T07:56:23;1.30;99.90
792;DHT22;379;49.022;12.148;2022-11-15T07:58:50;1.30;99.90
792;DHT22;379;49.022;12.148;2022-11-15T08:01:17;1.40;99.90
792;DHT22;379;49.022;12.148;2022-11-15T08:03:45;1.40;99.90
792;DHT22;379;49.022;12.148;2022-11-15T08:06:11;1.60;99.90
792;DHT22;379;49.022;12.148;2022-11-15T08:08:38;1.70;99.90
792;DHT22;379;49.022;12.148;2022-11-15T08:11:05;1.90;99.90
792;DHT22;379;49.022;12.148;2022-11-15T08:13:32;2.00;99.90
792;DHT22;379;49.022;12.148;2022-11-15T08:15:59;2.10;99.90
792;DHT22;379;49.022;12.148;2022-11-15T08:18:25;2.20;99.90
792;DHT22;379;49.022;12.148;2022-11-15T08:20:57;2.20;99.90
792;DHT22;379;49.022;12.148;2022-11-15T08:23:24;2.30;99.90
792;DHT22;379;49.022;12.148;2022-11-15T08:25:51;2.40;99.90
792;DHT22;379;49.022;12.148;2022-11-15T08:28:18;2.40;99.90
792;DHT22;379;49.022;12.148;2022-11-15T08:30:44;2.60;99.90
792;DHT22;379;49.022;12.148;2022-11-15T08:33:12;2.60;99.90
792;DHT22;379;49.022;12.148;2022-11-15T08:35:40;2.70;99.90
792;DHT22;379;49.022;12.148;2022-11-15T08:38:08;2.70;99.90
792;DHT22;379;49.022;12.148;2022-11-15T08:40:35;2.80;99.90
792;DHT22;379;49.022;12.148;2022-11-15T08:43:03;2.90;99.90
792;DHT22;379;49.022;12.148;2022-11-15T08:45:30;2.90;99.90
792;DHT22;379;49.022;12.148;2022-11-15T08:47:57;3.00;99.90
792;DHT22;379;49.022;12.148;2022-11-15T08:50:24;3.00;99.90
792;DHT22;379;49.022;12.148;2022-11-15T08:52:50;3.00;99.90
792;DHT22;379;49.022;12.148;2022-11-15T08:55:18;3.00;99.90
792;DHT22;379;49.022;12.148;2022-11-15T08:57:45;3.10;99.90
792;DHT22;379;49.022;12.148;2022-11-15T09:00:13;3.00;99.90
792;DHT22;379;49.022;12.148;2022-11-15T09:02:40;3.00;99.90
792;DHT22;379;49.022;12.148;2022-11-15T09:05:08;2.90;99.90
792;DHT22;379;49.022;12.148;2022-11-15T09:07:34;3.00;99.90
792;DHT22;379;49.022;12.148;2022-11-15T09:10:01;3.00;99.90
792;DHT22;379;49.022;12.148;2022-11-15T09:12:29;3.00;99.90
792;DHT22;379;49.022;12.148;2022-11-15T09:14:57;3.10;99.90
792;DHT22;379;49.022;12.148;2022-11-15T09:17:23;3.10;99.90
792;DHT22;379;49.022;12.148;2022-11-15T09:19:50;3.20;99.90
792;DHT22;379;49.022;12.148;2022-11-15T09:22:17;3.20;99.90
792;DHT22;379;49.022;12.148;2022-11-15T09:24:44;3.30;99.90
792;DHT22;379;49.022;12.148;2022-11-15T09:27:11;3.50;99.90
792;DHT22;379;49.022;12.148;2022-11-15T09:29:39;3.60;99.90
792;DHT22;379;49.022;12.148;2022-11-15T09:32:06;3.70;99.90
792;DHT22;379;49.022;12.148;2022-11-15T09:34:33;3.90;99.90
792;DHT22;379;49.022;12.148;2022-11-15T09:37:00;4.00;99.90
792;DHT22;379;49.022;12.148;2022-11-15T09:39:26;4.20;99.90
792;DHT22;379;49.022;12.148;2022-11-15T09:42:14;4.30;99.90
792;DHT22;379;49.022;12.148;2022-11-15T09:44:52;4.40;99.90
792;DHT22;379;49.022;12.148;2022-11-15T09:47:51;4.50;99.90
792;DHT22;379;49.022;12.148;2022-11-15T09:50:31;4.70;99.90
792;DHT22;379;49.022;12.148;2022-11-15T09:52:58;4.80;99.90
792;DHT22;379;49.022;12.148;2022-11-15T09:55:34;4.90;99.90
792;DHT22;379;49.022;12.148;2022-11-15T09:58:10;5.00;99.90
792;DHT22;379;49.022;12.148;2022-11-15T10:00:45;5.10;99.90
792;DHT22;379;49.022;12.148;2022-11-15T10:03:23;5.20;99.90
792;DHT22;379;49.022;12.148;2022-11-15T10:05:54;5.30;99.90
792;DHT22;379;49.022;12.148;2022-11-15T10:08:44;5.40;99.90
792;DHT22;379;49.022;12.148;2022-11-15T10:11:16;5.50;99.90
792;DHT22;379;49.022;12.148;2022-11-15T10:13:45;5.60;99.90
792;DHT22;379;49.022;12.148;2022-11-15T10:16:25;5.60;99.90
792;DHT22;379;49.022;12.148;2022-11-15T10:19:00;5.80;99.90
792;DHT22;379;49.022;12.148;2022-11-15T10:21:37;5.90;99.90
792;DHT22;379;49.022;12.148;2022-11-15T10:24:11;6.00;99.90
792;DHT22;379;49.022;12.148;2022-11-15T10:26:38;6.20;99.90
792;DHT22;379;49.022;12.148;2022-11-15T10:29:05;6.30;99.90
792;DHT22;379;49.022;12.148;2022-11-15T10:31:33;6.40;99.90
792;DHT22;379;49.022;12.148;2022-11-15T10:34:11;6.50;99.90
792;DHT22;379;49.022;12.148;2022-11-15T10:36:44;6.60;99.90
792;DHT22;379;49.022;12.148;2022-11-15T10:39:12;6.70;99.90
792;DHT22;379;49.022;12.148;2022-11-15T10:41:40;6.80;99.90
792;DHT22;379;49.022;12.148;2022-11-15T10:44:18;6.90;99.90
792;DHT22;379;49.022;12.148;2022-11-15T10:46:48;7.00;99.90
792;DHT22;379;49.022;12.148;2022-11-15T10:49:17;7.10;99.90
792;DHT22;379;49.022;12.148;2022-11-15T10:51:47;7.20;99.90
792;DHT22;379;49.022;12.148;2022-11-15T10:54:19;7.40;99.90
792;DHT22;379;49.022;12.148;2022-11-15T10:56:49;7.50;99.90
792;DHT22;379;49.022;12.148;2022-11-15T10:59:24;7.60;99.90
792;DHT22;379;49.022;12.148;2022-11-15T11:01:53;7.70;99.90
792;DHT22;379;49.022;12.148;2022-11-15T11:04:20;7.70;99.90
792;DHT22;379;49.022;12.148;2022-11-15T11:06:49;7.80;99.90
792;DHT22;379;49.022;12.148;2022-11-15T11:09:28;7.90;99.90
792;DHT22;379;49.022;12.148;2022-11-15T11:11:57;8.00;99.90
792;DHT22;379;49.022;12.148;2022-11-15T11:14:26;8.10;99.90
792;DHT22;379;49.022;12.148;2022-11-15T11:17:01;8.20;99.90
792;DHT22;379;49.022;12.148;2022-11-15T11:19:49;8.30;99.90
792;DHT22;379;49.022;12.148;2022-11-15T11:22:23;8.40;99.90
792;DHT22;379;49.022;12.148;2022-11-15T11:25:02;8.40;99.90
792;DHT22;379;49.022;12.148;2022-11-15T11:27:36;8.40;99.90
792;DHT22;379;49.022;12.148;2022-11-15T11:30:09;8.50;99.90
792;DHT22;379;49.022;12.148;2022-11-15T11:33:07;8.50;99.90
792;DHT22;379;49.022;12.148;2022-11-15T11:35:56;8.60;99.90
792;DHT22;379;49.022;12.148;2022-11-15T11:38:53;8.60;99.90
792;DHT22;379;49.022;12.148;2022-11-15T11:41:45;8.70;99.90
792;DHT22;379;49.022;12.148;2022-11-15T11:44:23;8.80;99.90
792;DHT22;379;49.022;12.148;2022-11-15T11:46:55;8.80;99.90
792;DHT22;379;49.022;12.148;2022-11-15T11:49:29;8.90;99.90
792;DHT22;379;49.022;12.148;2022-11-15T11:52:02;8.90;99.90
792;DHT22;379;49.022;12.148;2022-11-15T11:54:34;9.00;99.90
792;DHT22;379;49.022;12.148;2022-11-15T11:57:09;9.10;99.90
792;DHT22;379;49.022;12.148;2022-11-15T11:59:43;9.20;99.90
792;DHT22;379;49.022;12.148;2022-11-15T12:02:16;9.20;99.90
792;DHT22;379;49.022;12.148;2022-11-15T12:04:48;9.30;99.90
792;DHT22;379;49.022;12.148;2022-11-15T12:07:20;9.40;99.90
792;DHT22;379;49.022;12.148;2022-11-15T12:09:53;9.50;99.90
792;DHT22;379;49.022;12.148;2022-11-15T12:12:30;9.50;99.90
792;DHT22;379;49.022;12.148;2022-11-15T12:15:02;9.50;99.90
792;DHT22;379;49.022;12.148;2022-11-15T12:17:30;9.60;99.90
792;DHT22;379;49.022;12.148;2022-11-15T12:20:02;9.60;99.90
792;DHT22;379;49.022;12.148;2022-11-15T12:22:37;9.70;99.90
792;DHT22;379;49.022;12.148;2022-11-15T12:25:08;9.80;99.90
792;DHT22;379;49.022;12.148;2022-11-15T12:27:44;9.80;99.90
792;DHT22;379;49.022;12.148;2022-11-15T12:30:13;9.80;99.90
792;DHT22;379;49.022;12.148;2022-11-15T12:32:51;9.90;99.90
792;DHT22;379;49.022;12.148;2022-11-15T12:35:25;10.00;99.90
792;DHT22;379;49.022;12.148;2022-11-15T12:37:53;10.00;99.90
792;DHT22;379;49.022;12.148;2022-11-15T12:46:11;10.10;99.90
792;DHT22;379;49.022;12.148;2022-11-15T12:48:56;10.10;99.90
792;DHT22;379;49.022;12.148;2022-11-15T12:54:55;10.30;99.90
792;DHT22;379;49.022;12.148;2022-11-15T12:57:35;10.40;99.90
792;DHT22;379;49.022;12.148;2022-11-15T13:03:23;10.50;99.90
792;DHT22;379;49.022;12.148;2022-11-15T13:05:57;10.60;99.90
792;DHT22;379;49.022;12.148;2022-11-15T13:08:36;10.60;99.90
792;DHT22;379;49.022;12.148;2022-11-15T13:14:43;10.60;99.90
792;DHT22;379;49.022;12.148;2022-11-15T13:17:28;10.60;99.90
792;DHT22;379;49.022;12.148;2022-11-15T13:20:00;10.40;99.90
792;DHT22;379;49.022;12.148;2022-11-15T13:22:27;10.30;99.90
792;DHT22;379;49.022;12.148;2022-11-15T13:25:53;10.30;99.90
792;DHT22;379;49.022;12.148;2022-11-15T13:28:27;10.30;99.90
792;DHT22;379;49.022;12.148;2022-11-15T13:30:58;10.30;99.90
792;DHT22;379;49.022;12.148;2022-11-15T13:33:30;10.20;99.90
792;DHT22;379;49.022;12.148;2022-11-15T13:35:59;10.20;99.90
792;DHT22;379;49.022;12.148;2022-11-15T13:38:28;10.10;99.90
792;DHT22;379;49.022;12.148;2022-11-15T13:40:56;10.00;99.90
792;DHT22;379;49.022;12.148;2022-11-15T13:43:31;9.90;99.90
792;DHT22;379;49.022;12.148;2022-11-15T13:46:06;10.00;99.90
792;DHT22;379;49.022;12.148;2022-11-15T13:48:33;10.00;99.90
792;DHT22;379;49.022;12.148;2022-11-15T13:51:01;10.10;99.90
792;DHT22;379;49.022;12.148;2022-11-15T13:53:30;10.20;99.90
792;DHT22;379;49.022;12.148;2022-11-15T13:55:58;10.20;99.90
792;DHT22;379;49.022;12.148;2022-11-15T13:58:25;10.30;99.90
792;DHT22;379;49.022;12.148;2022-11-15T14:00:59;10.40;99.90
792;DHT22;379;49.022;12.148;2022-11-15T14:03:29;10.40;99.90
792;DHT22;379;49.022;12.148;2022-11-15T14:06:04;10.40;99.90
792;DHT22;379;49.022;12.148;2022-11-15T14:08:33;10.40;99.90
792;DHT22;379;49.022;12.148;2022-11-15T14:11:13;10.30;99.90
792;DHT22;379;49.022;12.148;2022-11-15T14:13:41;10.20;99.90
792;DHT22;379;49.022;12.148;2022-11-15T14:16:16;10.20;99.90
792;DHT22;379;49.022;12.148;2022-11-15T14:18:47;10.20;99.90
792;DHT22;379;49.022;12.148;2022-11-15T14:21:14;10.20;99.90
792;DHT22;379;49.022;12.148;2022-11-15T14:23:41;10.20;99.90
792;DHT22;379;49.022;12.148;2022-11-15T14:26:26;10.20;99.90
792;DHT22;379;49.022;12.148;2022-11-15T14:28:53;10.20;99.90
792;DHT22;379;49.022;12.148;2022-11-15T14:31:20;10.20;99.90
792;DHT22;379;49.022;12.148;2022-11-15T14:33:49;10.20;99.90
792;DHT22;379;49.022;12.148;2022-11-15T14:36:17;10.20;99.90
792;DHT22;379;49.022;12.148;2022-11-15T14:38:44;10.20;99.90
792;DHT22;379;49.022;12.148;2022-11-15T14:41:18;10.20;99.90
792;DHT22;379;49.022;12.148;2022-11-15T14:43:45;10.10;99.90
792;DHT22;379;49.022;12.148;2022-11-15T14:46:12;10.10;99.90
792;DHT22;379;49.022;12.148;2022-11-15T14:48:39;10.10;99.90
792;DHT22;379;49.022;12.148;2022-11-15T14:51:11;10.00;99.90
792;DHT22;379;49.022;12.148;2022-11-15T14:53:39;9.90;99.90
792;DHT22;379;49.022;12.148;2022-11-15T14:56:06;9.70;99.90
792;DHT22;379;49.022;12.148;2022-11-15T14:58:33;9.60;99.90
792;DHT22;379;49.022;12.148;2022-11-15T15:00:59;9.40;99.90
792;DHT22;379;49.022;12.148;2022-11-15T15:03:28;9.30;99.90
792;DHT22;379;49.022;12.148;2022-11-15T15:05:54;9.20;99.90
792;DHT22;379;49.022;12.148;2022-11-15T15:08:23;9.10;99.90
792;DHT22;379;49.022;12.148;2022-11-15T15:10:49;9.00;99.90
792;DHT22;379;49.022;12.148;2022-11-15T15:13:18;8.90;99.90
792;DHT22;379;49.022;12.148;2022-11-15T15:15:45;8.80;99.90
792;DHT22;379;49.022;12.148;2022-11-15T15:18:12;8.70;99.90
792;DHT22;379;49.022;12.148;2022-11-15T15:20:40;8.70;99.90
792;DHT22;379;49.022;12.148;2022-11-15T15:23:14;8.60;99.90
792;DHT22;379;49.022;12.148;2022-11-15T15:25:43;8.50;99.90
792;DHT22;379;49.022;12.148;2022-11-15T15:28:11;8.30;99.90
792;DHT22;379;49.022;12.148;2022-11-15T15:30:37;8.10;99.90
792;DHT22;379;49.022;12.148;2022-11-15T15:33:04;7.90;99.90
792;DHT22;379;49.022;12.148;2022-11-15T15:35:33;7.60;99.90
792;DHT22;379;49.022;12.148;2022-11-15T15:38:00;7.40;99.90
792;DHT22;379;49.022;12.148;2022-11-15T15:40:30;7.20;99.90
792;DHT22;379;49.022;12.148;2022-11-15T15:42:58;7.10;99.90
792;DHT22;379;49.022;12.148;2022-11-15T15:45:25;6.90;99.90
792;DHT22;379;49.022;12.148;2022-11-15T15:47:53;6.80;99.90
792;DHT22;379;49.022;12.148;2022-11-15T15:50:25;6.80;99.90
792;DHT22;379;49.022;12.148;2022-11-15T15:52:53;6.80;99.90
792;DHT22;379;49.022;12.148;2022-11-15T15:55:20;7.00;99.90
792;DHT22;379;49.022;12.148;2022-11-15T15:57:47;7.00;99.90
792;DHT22;379;49.022;12.148;2022-11-15T16:00:17;6.80;99.90
792;DHT22;379;49.022;12.148;2022-11-15T16:02:44;6.70;99.90
792;DHT22;379;49.022;12.148;2022-11-15T16:05:11;6.60;99.90
792;DHT22;379;49.022;12.148;2022-11-15T16:07:39;6.40;99.90
792;DHT22;379;49.022;12.148;2022-11-15T16:10:17;6.30;99.90
792;DHT22;379;49.022;12.148;2022-11-15T16:12:44;6.10;99.90
792;DHT22;379;49.022;12.148;2022-11-15T16:15:11;6.00;99.90
792;DHT22;379;49.022;12.148;2022-11-15T16:17:42;5.90;99.90
792;DHT22;379;49.022;12.148;2022-11-15T16:20:20;6.00;99.90
792;DHT22;379;49.022;12.148;2022-11-15T16:22:47;6.10;99.90
792;DHT22;379;49.022;12.148;2022-11-15T16:25:14;6.10;99.90
792;DHT22;379;49.022;12.148;2022-11-15T16:27:41;6.00;99.90
792;DHT22;379;49.022;12.148;2022-11-15T16:30:13;6.00;99.90
792;DHT22;379;49.022;12.148;2022-11-15T16:32:42;5.90;99.90
792;DHT22;379;49.022;12.148;2022-11-15T16:35:10;5.70;99.90
792;DHT22;379;49.022;12.148;2022-11-15T16:37:38;5.60;99.90
792;DHT22;379;49.022;12.148;2022-11-15T16:40:08;5.50;99.90
792;DHT22;379;49.022;12.148;2022-11-15T16:42:37;5.40;99.90
792;DHT22;379;49.022;12.148;2022-11-15T16:45:04;5.30;99.90
792;DHT22;379;49.022;12.148;2022-11-15T16:47:31;5.20;99.90
792;DHT22;379;49.022;12.148;2022-11-15T16:49:59;5.20;99.90
792;DHT22;379;49.022;12.148;2022-11-15T16:52:26;5.10;99.90
792;DHT22;379;49.022;12.148;2022-11-15T16:54:53;5.00;99.90
792;DHT22;379;49.022;12.148;2022-11-15T16:57:19;5.00;99.90
792;DHT22;379;49.022;12.148;2022-11-15T16:59:46;5.00;99.90
792;DHT22;379;49.022;12.148;2022-11-15T17:02:13;5.00;99.90
792;DHT22;379;49.022;12.148;2022-11-15T17:04:41;5.00;99.90